sensor_id;sensor_type;location;lat;lon;timestamp;P1;durP1;ratioP1;P2;durP2;ratioP2
39156;SDS011;24889;42.424;25.604;2022-11-09T00:01:32;20.40;;;14.27;;
39156;SDS011;24889;42.424;25.604;2022-11-09T00:03:58;25.20;;;13.60;;
39156;SDS011;24889;42.424;25.604;2022-11-09T00:06:23;27.10;;;13.73;;
39156;SDS011;24889;42.424;25.604;2022-11-09T00:08:49;23.57;;;13.67;;
39156;SDS011;24889;42.424;25.604;2022-11-09T00:11:14;18.90;;;12.87;;
39156;SDS011;24889;42.424;25.604;2022-11-09T00:13:40;22.83;;;12.23;;
39156;SDS011;24889;42.424;25.604;2022-11-09T00:16:06;21.20;;;12.52;;
39156;SDS011;24889;42.424;25.604;2022-11-09T00:18:35;20.25;;;12.57;;
39156;SDS011;24889;42.424;25.604;2022-11-09T00:21:08;24.30;;;13.30;;
39156;SDS011;24889;42.424;25.604;2022-11-09T00:23:34;21.35;;;12.80;;
39156;SDS011;24889;42.424;25.604;2022-11-09T00:26:03;22.67;;;13.90;;
39156;SDS011;24889;42.424;25.604;2022-11-09T00:28:28;25.92;;;11.95;;
39156;SDS011;24889;42.424;25.604;2022-11-09T00:31:00;19.20;;;11.23;;
39156;SDS011;24889;42.424;25.604;2022-11-09T00:33:25;33.70;;;13.38;;
39156;SDS011;24889;42.424;25.604;2022-11-09T00:35:51;19.03;;;13.10;;
39156;SDS011;24889;42.424;25.604;2022-11-09T00:38:16;21.10;;;12.57;;
39156;SDS011;24889;42.424;25.604;2022-11-09T00:40:41;24.90;;;12.90;;
39156;SDS011;24889;42.424;25.604;2022-11-09T00:43:07;20.63;;;13.20;;
39156;SDS011;24889;42.424;25.604;2022-11-09T00:45:32;29.10;;;14.50;;
39156;SDS011;24889;42.424;25.604;2022-11-09T00:47:57;21.70;;;13.93;;
39156;SDS011;24889;42.424;25.604;2022-11-09T00:50:22;24.33;;;14.43;;
39156;SDS011;24889;42.424;25.604;2022-11-09T00:52:48;25.33;;;14.80;;
39156;SDS011;24889;42.424;25.604;2022-11-09T00:55:13;29.10;;;14.53;;
39156;SDS011;24889;42.424;25.604;2022-11-09T00:57:39;27.42;;;15.05;;
39156;SDS011;24889;42.424;25.604;2022-11-09T01:00:04;29.57;;;16.67;;
39156;SDS011;24889;42.424;25.604;2022-11-09T01:02:30;26.73;;;14.83;;
39156;SDS011;24889;42.424;25.604;2022-11-09T01:04:55;26.20;;;15.83;;
39156;SDS011;24889;42.424;25.604;2022-11-09T01:07:20;28.43;;;16.17;;
39156;SDS011;24889;42.424;25.604;2022-11-09T01:09:45;27.07;;;16.53;;
39156;SDS011;24889;42.424;25.604;2022-11-09T01:12:11;31.43;;;16.53;;
39156;SDS011;24889;42.424;25.604;2022-11-09T01:14:36;28.17;;;14.93;;
39156;SDS011;24889;42.424;25.604;2022-11-09T01:17:01;31.90;;;15.73;;
39156;SDS011;24889;42.424;25.604;2022-11-09T01:19:27;25.60;;;14.30;;
39156;SDS011;24889;42.424;25.604;2022-11-09T01:21:52;35.73;;;17.00;;
39156;SDS011;24889;42.424;25.604;2022-11-09T01:24:17;31.33;;;16.10;;
39156;SDS011;24889;42.424;25.604;2022-11-09T01:26:42;32.37;;;16.90;;
39156;SDS011;24889;42.424;25.604;2022-11-09T01:29:08;30.93;;;14.90;;
39156;SDS011;24889;42.424;25.604;2022-11-09T01:31:33;17.50;;;11.30;;
39156;SDS011;24889;42.424;25.604;2022-11-09T01:33:58;25.07;;;14.17;;
39156;SDS011;24889;42.424;25.604;2022-11-09T01:36:24;24.07;;;15.20;;
39156;SDS011;24889;42.424;25.604;2022-11-09T01:38:49;26.20;;;15.30;;
39156;SDS011;24889;42.424;25.604;2022-11-09T01:41:16;28.10;;;16.03;;
39156;SDS011;24889;42.424;25.604;2022-11-09T01:43:42;28.73;;;14.88;;
39156;SDS011;24889;42.424;25.604;2022-11-09T01:46:11;23.47;;;15.60;;
39156;SDS011;24889;42.424;25.604;2022-11-09T01:48:57;26.63;;;14.40;;
39156;SDS011;24889;42.424;25.604;2022-11-09T01:51:29;22.25;;;13.80;;
39156;SDS011;24889;42.424;25.604;2022-11-09T01:54:00;27.73;;;15.00;;
39156;SDS011;24889;42.424;25.604;2022-11-09T01:56:26;27.50;;;16.10;;
39156;SDS011;24889;42.424;25.604;2022-11-09T01:59:04;26.40;;;15.90;;
39156;SDS011;24889;42.424;25.604;2022-11-09T02:01:30;23.40;;;14.52;;
39156;SDS011;24889;42.424;25.604;2022-11-09T02:03:56;24.98;;;15.27;;
39156;SDS011;24889;42.424;25.604;2022-11-09T02:06:24;26.85;;;15.77;;
39156;SDS011;24889;42.424;25.604;2022-11-09T02:08:51;26.33;;;16.30;;
39156;SDS011;24889;42.424;25.604;2022-11-09T02:11:18;28.30;;;15.30;;
39156;SDS011;24889;42.424;25.604;2022-11-09T02:18:35;31.10;;;14.77;;
39156;SDS011;24889;42.424;25.604;2022-11-09T02:21:00;28.53;;;15.73;;
39156;SDS011;24889;42.424;25.604;2022-11-09T02:23:26;30.07;;;17.67;;
39156;SDS011;24889;42.424;25.604;2022-11-09T02:26:02;23.90;;;15.00;;
39156;SDS011;24889;42.424;25.604;2022-11-09T02:28:29;25.55;;;15.25;;
39156;SDS011;24889;42.424;25.604;2022-11-09T02:30:55;29.70;;;14.63;;
39156;SDS011;24889;42.424;25.604;2022-11-09T02:33:21;30.52;;;16.90;;
39156;SDS011;24889;42.424;25.604;2022-11-09T02:35:46;28.23;;;17.10;;
39156;SDS011;24889;42.424;25.604;2022-11-09T02:38:12;32.37;;;15.97;;
39156;SDS011;24889;42.424;25.604;2022-11-09T02:43:05;28.75;;;17.67;;
39156;SDS011;24889;42.424;25.604;2022-11-09T02:45:31;31.52;;;16.88;;
39156;SDS011;24889;42.424;25.604;2022-11-09T02:47:56;29.50;;;16.90;;
39156;SDS011;24889;42.424;25.604;2022-11-09T02:50:21;30.73;;;17.60;;
39156;SDS011;24889;42.424;25.604;2022-11-09T02:52:47;27.73;;;16.73;;
39156;SDS011;24889;42.424;25.604;2022-11-09T02:55:12;34.70;;;18.00;;
39156;SDS011;24889;42.424;25.604;2022-11-09T02:57:38;34.70;;;19.17;;
39156;SDS011;24889;42.424;25.604;2022-11-09T03:00:03;29.13;;;17.23;;
39156;SDS011;24889;42.424;25.604;2022-11-09T03:02:29;33.00;;;19.00;;
39156;SDS011;24889;42.424;25.604;2022-11-09T03:04:54;35.20;;;17.53;;
39156;SDS011;24889;42.424;25.604;2022-11-09T03:07:19;38.23;;;18.47;;
39156;SDS011;24889;42.424;25.604;2022-11-09T03:09:45;25.87;;;17.23;;
39156;SDS011;24889;42.424;25.604;2022-11-09T03:12:10;31.90;;;18.80;;
39156;SDS011;24889;42.424;25.604;2022-11-09T03:14:57;29.13;;;18.33;;
39156;SDS011;24889;42.424;25.604;2022-11-09T03:17:23;27.38;;;18.45;;
39156;SDS011;24889;42.424;25.604;2022-11-09T03:19:48;31.67;;;19.33;;
39156;SDS011;24889;42.424;25.604;2022-11-09T03:22:13;38.63;;;19.70;;
39156;SDS011;24889;42.424;25.604;2022-11-09T03:24:39;30.20;;;17.67;;
39156;SDS011;24889;42.424;25.604;2022-11-09T03:27:04;32.77;;;19.60;;
39156;SDS011;24889;42.424;25.604;2022-11-09T03:29:29;28.10;;;18.10;;
39156;SDS011;24889;42.424;25.604;2022-11-09T03:31:55;33.80;;;17.40;;
39156;SDS011;24889;42.424;25.604;2022-11-09T03:34:20;27.67;;;16.43;;
39156;SDS011;24889;42.424;25.604;2022-11-09T03:36:45;28.73;;;17.43;;
39156;SDS011;24889;42.424;25.604;2022-11-09T03:39:10;34.73;;;17.43;;
39156;SDS011;24889;42.424;25.604;2022-11-09T03:41:36;40.60;;;19.07;;
39156;SDS011;24889;42.424;25.604;2022-11-09T03:44:01;38.50;;;19.87;;
39156;SDS011;24889;42.424;25.604;2022-11-09T03:46:26;27.47;;;17.13;;
39156;SDS011;24889;42.424;25.604;2022-11-09T03:48:52;31.73;;;18.57;;
39156;SDS011;24889;42.424;25.604;2022-11-09T03:51:17;31.90;;;17.10;;
39156;SDS011;24889;42.424;25.604;2022-11-09T03:53:43;34.47;;;18.40;;
39156;SDS011;24889;42.424;25.604;2022-11-09T03:56:08;30.77;;;18.57;;
39156;SDS011;24889;42.424;25.604;2022-11-09T03:58:33;26.40;;;16.63;;
39156;SDS011;24889;42.424;25.604;2022-11-09T04:00:59;29.17;;;17.13;;
39156;SDS011;24889;42.424;25.604;2022-11-09T04:03:24;25.37;;;17.43;;
39156;SDS011;24889;42.424;25.604;2022-11-09T04:05:49;27.67;;;16.33;;
39156;SDS011;24889;42.424;25.604;2022-11-09T04:08:14;28.77;;;16.93;;
39156;SDS011;24889;42.424;25.604;2022-11-09T04:10:40;29.80;;;16.97;;
39156;SDS011;24889;42.424;25.604;2022-11-09T04:13:05;32.83;;;16.47;;
39156;SDS011;24889;42.424;25.604;2022-11-09T04:15:30;28.83;;;16.10;;
39156;SDS011;24889;42.424;25.604;2022-11-09T04:17:59;27.17;;;18.63;;
39156;SDS011;24889;42.424;25.604;2022-11-09T04:20:26;30.83;;;16.17;;
39156;SDS011;24889;42.424;25.604;2022-11-09T04:22:55;25.67;;;16.55;;
39156;SDS011;24889;42.424;25.604;2022-11-09T04:25:20;32.28;;;18.00;;
39156;SDS011;24889;42.424;25.604;2022-11-09T04:27:46;34.30;;;17.75;;
39156;SDS011;24889;42.424;25.604;2022-11-09T04:30:11;31.87;;;18.43;;
39156;SDS011;24889;42.424;25.604;2022-11-09T04:32:37;29.30;;;16.60;;
39156;SDS011;24889;42.424;25.604;2022-11-09T04:35:02;28.53;;;15.80;;
39156;SDS011;24889;42.424;25.604;2022-11-09T04:37:28;28.30;;;16.83;;
39156;SDS011;24889;42.424;25.604;2022-11-09T04:39:53;31.97;;;17.37;;
39156;SDS011;24889;42.424;25.604;2022-11-09T04:42:18;29.10;;;16.67;;
39156;SDS011;24889;42.424;25.604;2022-11-09T04:44:44;33.50;;;18.07;;
39156;SDS011;24889;42.424;25.604;2022-11-09T04:47:09;31.70;;;16.47;;
39156;SDS011;24889;42.424;25.604;2022-11-09T04:49:34;30.77;;;18.10;;
39156;SDS011;24889;42.424;25.604;2022-11-09T04:51:59;27.23;;;16.73;;
39156;SDS011;24889;42.424;25.604;2022-11-09T04:54:25;28.30;;;16.40;;
39156;SDS011;24889;42.424;25.604;2022-11-09T04:56:50;31.90;;;18.57;;
39156;SDS011;24889;42.424;25.604;2022-11-09T04:59:19;32.22;;;19.90;;
39156;SDS011;24889;42.424;25.604;2022-11-09T05:01:45;32.08;;;20.13;;
39156;SDS011;24889;42.424;25.604;2022-11-09T05:04:10;28.27;;;18.43;;
39156;SDS011;24889;42.424;25.604;2022-11-09T05:06:36;47.87;;;22.00;;
39156;SDS011;24889;42.424;25.604;2022-11-09T05:09:03;39.33;;;20.80;;
39156;SDS011;24889;42.424;25.604;2022-11-09T05:11:28;35.58;;;21.48;;
39156;SDS011;24889;42.424;25.604;2022-11-09T05:13:54;42.73;;;22.67;;
39156;SDS011;24889;42.424;25.604;2022-11-09T05:16:19;54.03;;;29.33;;
39156;SDS011;24889;42.424;25.604;2022-11-09T05:18:45;52.53;;;30.13;;
39156;SDS011;24889;42.424;25.604;2022-11-09T05:21:11;55.75;;;36.80;;
39156;SDS011;24889;42.424;25.604;2022-11-09T05:23:36;36.53;;;22.93;;
39156;SDS011;24889;42.424;25.604;2022-11-09T05:26:20;40.95;;;21.50;;
39156;SDS011;24889;42.424;25.604;2022-11-09T05:28:45;32.57;;;21.40;;
39156;SDS011;24889;42.424;25.604;2022-11-09T05:31:10;42.87;;;21.77;;
39156;SDS011;24889;42.424;25.604;2022-11-09T05:33:36;35.43;;;19.40;;
39156;SDS011;24889;42.424;25.604;2022-11-09T05:36:01;35.37;;;21.53;;
39156;SDS011;24889;42.424;25.604;2022-11-09T05:38:26;35.03;;;21.43;;
39156;SDS011;24889;42.424;25.604;2022-11-09T05:40:52;35.53;;;21.03;;
39156;SDS011;24889;42.424;25.604;2022-11-09T05:43:18;38.58;;;19.45;;
39156;SDS011;24889;42.424;25.604;2022-11-09T05:45:43;33.80;;;19.00;;
39156;SDS011;24889;42.424;25.604;2022-11-09T05:48:09;44.13;;;18.83;;
39156;SDS011;24889;42.424;25.604;2022-11-09T05:50:34;39.38;;;18.13;;
39156;SDS011;24889;42.424;25.604;2022-11-09T05:53:00;35.23;;;18.43;;
39156;SDS011;24889;42.424;25.604;2022-11-09T05:55:26;39.53;;;19.80;;
39156;SDS011;24889;42.424;25.604;2022-11-09T05:57:51;33.75;;;17.35;;
39156;SDS011;24889;42.424;25.604;2022-11-09T06:00:17;30.93;;;16.70;;
39156;SDS011;24889;42.424;25.604;2022-11-09T06:02:42;33.27;;;18.60;;
39156;SDS011;24889;42.424;25.604;2022-11-09T06:05:07;38.13;;;19.93;;
39156;SDS011;24889;42.424;25.604;2022-11-09T06:07:33;32.83;;;19.03;;
39156;SDS011;24889;42.424;25.604;2022-11-09T06:09:58;44.40;;;22.07;;
39156;SDS011;24889;42.424;25.604;2022-11-09T06:12:23;37.20;;;20.33;;
39156;SDS011;24889;42.424;25.604;2022-11-09T06:14:49;42.87;;;19.87;;
39156;SDS011;24889;42.424;25.604;2022-11-09T06:17:14;42.90;;;22.23;;
39156;SDS011;24889;42.424;25.604;2022-11-09T06:19:39;48.53;;;24.73;;
39156;SDS011;24889;42.424;25.604;2022-11-09T06:22:05;48.10;;;23.13;;
39156;SDS011;24889;42.424;25.604;2022-11-09T06:24:30;61.90;;;24.53;;
39156;SDS011;24889;42.424;25.604;2022-11-09T06:26:55;49.93;;;22.10;;
39156;SDS011;24889;42.424;25.604;2022-11-09T06:29:21;51.22;;;24.35;;
39156;SDS011;24889;42.424;25.604;2022-11-09T06:31:46;47.37;;;24.33;;
39156;SDS011;24889;42.424;25.604;2022-11-09T06:34:13;39.85;;;23.45;;
39156;SDS011;24889;42.424;25.604;2022-11-09T06:36:38;38.37;;;21.33;;
39156;SDS011;24889;42.424;25.604;2022-11-09T06:39:03;34.33;;;20.50;;
39156;SDS011;24889;42.424;25.604;2022-11-09T06:41:29;38.03;;;20.38;;
39156;SDS011;24889;42.424;25.604;2022-11-09T06:43:54;34.03;;;19.63;;
39156;SDS011;24889;42.424;25.604;2022-11-09T06:46:20;36.97;;;21.60;;
39156;SDS011;24889;42.424;25.604;2022-11-09T06:48:45;38.37;;;21.17;;
39156;SDS011;24889;42.424;25.604;2022-11-09T06:51:10;40.90;;;20.97;;
39156;SDS011;24889;42.424;25.604;2022-11-09T06:53:36;37.72;;;18.80;;
39156;SDS011;24889;42.424;25.604;2022-11-09T06:56:03;43.28;;;19.92;;
39156;SDS011;24889;42.424;25.604;2022-11-09T06:58:29;31.50;;;17.67;;
39156;SDS011;24889;42.424;25.604;2022-11-09T07:00:55;29.77;;;18.23;;
39156;SDS011;24889;42.424;25.604;2022-11-09T07:03:20;30.50;;;17.63;;
39156;SDS011;24889;42.424;25.604;2022-11-09T07:05:46;36.17;;;18.73;;
39156;SDS011;24889;42.424;25.604;2022-11-09T07:08:12;27.98;;;17.58;;
39156;SDS011;24889;42.424;25.604;2022-11-09T07:10:37;35.53;;;18.98;;
39156;SDS011;24889;42.424;25.604;2022-11-09T07:13:03;29.95;;;17.77;;
39156;SDS011;24889;42.424;25.604;2022-11-09T07:15:29;39.28;;;19.00;;
39156;SDS011;24889;42.424;25.604;2022-11-09T07:17:57;33.37;;;16.30;;
39156;SDS011;24889;42.424;25.604;2022-11-09T07:20:24;35.30;;;19.13;;
39156;SDS011;24889;42.424;25.604;2022-11-09T07:22:49;33.50;;;18.45;;
39156;SDS011;24889;42.424;25.604;2022-11-09T07:25:15;35.83;;;18.45;;
39156;SDS011;24889;42.424;25.604;2022-11-09T07:27:40;34.42;;;18.25;;
39156;SDS011;24889;42.424;25.604;2022-11-09T07:30:06;27.23;;;16.60;;
39156;SDS011;24889;42.424;25.604;2022-11-09T07:32:35;39.97;;;17.83;;
39156;SDS011;24889;42.424;25.604;2022-11-09T07:35:01;33.13;;;18.02;;
39156;SDS011;24889;42.424;25.604;2022-11-09T07:39:51;25.50;;;15.35;;
39156;SDS011;24889;42.424;25.604;2022-11-09T07:42:17;32.47;;;15.37;;
39156;SDS011;24889;42.424;25.604;2022-11-09T07:44:42;27.87;;;15.00;;
39156;SDS011;24889;42.424;25.604;2022-11-09T07:47:07;28.13;;;15.70;;
39156;SDS011;24889;42.424;25.604;2022-11-09T07:49:33;34.60;;;14.43;;
39156;SDS011;24889;42.424;25.604;2022-11-09T07:54:24;22.03;;;12.83;;
39156;SDS011;24889;42.424;25.604;2022-11-09T07:56:50;25.80;;;13.48;;
39156;SDS011;24889;42.424;25.604;2022-11-09T07:59:16;31.30;;;14.93;;
39156;SDS011;24889;42.424;25.604;2022-11-09T08:01:41;22.93;;;14.60;;
39156;SDS011;24889;42.424;25.604;2022-11-09T08:04:06;27.63;;;15.33;;
39156;SDS011;24889;42.424;25.604;2022-11-09T08:06:32;31.40;;;14.63;;
39156;SDS011;24889;42.424;25.604;2022-11-09T08:08:57;31.13;;;15.57;;
39156;SDS011;24889;42.424;25.604;2022-11-09T08:11:23;29.80;;;12.57;;
39156;SDS011;24889;42.424;25.604;2022-11-09T08:13:49;29.20;;;14.80;;
39156;SDS011;24889;42.424;25.604;2022-11-09T08:16:14;34.95;;;14.23;;
39156;SDS011;24889;42.424;25.604;2022-11-09T08:18:39;29.45;;;13.43;;
39156;SDS011;24889;42.424;25.604;2022-11-09T08:21:05;25.03;;;13.40;;
39156;SDS011;24889;42.424;25.604;2022-11-09T08:23:30;32.20;;;14.00;;
39156;SDS011;24889;42.424;25.604;2022-11-09T08:25:55;28.23;;;12.23;;
39156;SDS011;24889;42.424;25.604;2022-11-09T08:28:21;30.20;;;12.80;;
39156;SDS011;24889;42.424;25.604;2022-11-09T08:30:53;22.20;;;12.40;;
39156;SDS011;24889;42.424;25.604;2022-11-09T08:33:19;25.50;;;13.32;;
39156;SDS011;24889;42.424;25.604;2022-11-09T08:35:44;22.87;;;12.43;;
39156;SDS011;24889;42.424;25.604;2022-11-09T08:38:09;28.20;;;14.03;;
39156;SDS011;24889;42.424;25.604;2022-11-09T08:40:35;25.30;;;12.67;;
39156;SDS011;24889;42.424;25.604;2022-11-09T08:43:04;21.10;;;12.03;;
39156;SDS011;24889;42.424;25.604;2022-11-09T08:45:33;24.67;;;11.77;;
39156;SDS011;24889;42.424;25.604;2022-11-09T08:47:59;20.63;;;11.98;;
39156;SDS011;24889;42.424;25.604;2022-11-09T08:50:25;24.27;;;11.70;;
39156;SDS011;24889;42.424;25.604;2022-11-09T08:52:51;18.75;;;9.80;;
39156;SDS011;24889;42.424;25.604;2022-11-09T08:55:16;22.45;;;11.55;;
39156;SDS011;24889;42.424;25.604;2022-11-09T08:57:41;24.13;;;11.70;;
39156;SDS011;24889;42.424;25.604;2022-11-09T09:00:07;21.37;;;10.77;;
39156;SDS011;24889;42.424;25.604;2022-11-09T09:02:32;22.13;;;11.75;;
39156;SDS011;24889;42.424;25.604;2022-11-09T09:04:58;19.65;;;11.23;;
39156;SDS011;24889;42.424;25.604;2022-11-09T09:07:23;23.70;;;11.60;;
39156;SDS011;24889;42.424;25.604;2022-11-09T09:09:49;23.13;;;10.90;;
39156;SDS011;24889;42.424;25.604;2022-11-09T09:12:14;20.90;;;10.47;;
39156;SDS011;24889;42.424;25.604;2022-11-09T09:14:39;23.57;;;12.73;;
39156;SDS011;24889;42.424;25.604;2022-11-09T09:17:05;18.30;;;10.23;;
39156;SDS011;24889;42.424;25.604;2022-11-09T09:19:30;19.63;;;9.67;;
39156;SDS011;24889;42.424;25.604;2022-11-09T09:21:56;22.40;;;11.75;;
39156;SDS011;24889;42.424;25.604;2022-11-09T09:24:21;20.30;;;9.13;;
39156;SDS011;24889;42.424;25.604;2022-11-09T09:26:46;20.93;;;10.13;;
39156;SDS011;24889;42.424;25.604;2022-11-09T09:29:12;27.33;;;11.13;;
39156;SDS011;24889;42.424;25.604;2022-11-09T09:31:38;20.15;;;12.02;;
39156;SDS011;24889;42.424;25.604;2022-11-09T09:34:03;26.27;;;10.70;;
39156;SDS011;24889;42.424;25.604;2022-11-09T09:36:28;18.27;;;12.10;;
39156;SDS011;24889;42.424;25.604;2022-11-09T09:38:54;21.80;;;10.40;;
39156;SDS011;24889;42.424;25.604;2022-11-09T09:47:13;21.80;;;10.40;;
39156;SDS011;24889;42.424;25.604;2022-11-09T09:52:11;24.43;;;11.10;;
39156;SDS011;24889;42.424;25.604;2022-11-09T09:54:40;18.13;;;9.18;;
39156;SDS011;24889;42.424;25.604;2022-11-09T09:57:10;20.20;;;10.07;;
39156;SDS011;24889;42.424;25.604;2022-11-09T09:59:41;20.90;;;10.15;;
39156;SDS011;24889;42.424;25.604;2022-11-09T10:02:23;20.02;;;10.05;;
39156;SDS011;24889;42.424;25.604;2022-11-09T10:04:48;16.70;;;10.30;;
39156;SDS011;24889;42.424;25.604;2022-11-09T10:09:48;40.33;;;10.70;;
39156;SDS011;24889;42.424;25.604;2022-11-09T10:15:02;18.20;;;9.82;;
39156;SDS011;24889;42.424;25.604;2022-11-09T10:25:00;19.30;;;11.27;;
39156;SDS011;24889;42.424;25.604;2022-11-09T10:27:34;22.60;;;12.13;;
39156;SDS011;24889;42.424;25.604;2022-11-09T10:30:00;20.83;;;11.95;;
39156;SDS011;24889;42.424;25.604;2022-11-09T10:32:28;19.05;;;11.57;;
39156;SDS011;24889;42.424;25.604;2022-11-09T10:34:59;20.35;;;11.88;;
39156;SDS011;24889;42.424;25.604;2022-11-09T10:37:45;18.30;;;10.95;;
39156;SDS011;24889;42.424;25.604;2022-11-09T10:42:36;25.50;;;12.80;;
39156;SDS011;24889;42.424;25.604;2022-11-09T10:45:10;17.27;;;11.60;;
39156;SDS011;24889;42.424;25.604;2022-11-09T10:47:49;17.30;;;10.05;;
39156;SDS011;24889;42.424;25.604;2022-11-09T10:50:23;23.38;;;12.75;;
39156;SDS011;24889;42.424;25.604;2022-11-09T10:52:50;23.50;;;11.90;;
39156;SDS011;24889;42.424;25.604;2022-11-09T10:57:49;21.80;;;11.57;;
39156;SDS011;24889;42.424;25.604;2022-11-09T11:00:18;19.00;;;11.77;;
39156;SDS011;24889;42.424;25.604;2022-11-09T11:02:44;22.35;;;12.13;;
39156;SDS011;24889;42.424;25.604;2022-11-09T11:07:36;23.15;;;13.23;;
39156;SDS011;24889;42.424;25.604;2022-11-09T11:12:43;20.25;;;11.82;;
39156;SDS011;24889;42.424;25.604;2022-11-09T11:17:59;20.02;;;11.98;;
39156;SDS011;24889;42.424;25.604;2022-11-09T11:20:30;18.17;;;10.63;;
39156;SDS011;24889;42.424;25.604;2022-11-09T11:25:30;24.90;;;11.70;;
39156;SDS011;24889;42.424;25.604;2022-11-09T11:27:59;15.85;;;11.27;;
39156;SDS011;24889;42.424;25.604;2022-11-09T11:30:26;19.55;;;11.02;;
39156;SDS011;24889;42.424;25.604;2022-11-09T11:32:53;21.27;;;11.75;;
39156;SDS011;24889;42.424;25.604;2022-11-09T11:35:22;21.15;;;12.55;;
39156;SDS011;24889;42.424;25.604;2022-11-09T11:42:53;22.00;;;10.33;;
39156;SDS011;24889;42.424;25.604;2022-11-09T11:45:38;27.83;;;12.30;;
39156;SDS011;24889;42.424;25.604;2022-11-09T11:48:30;17.80;;;10.88;;
39156;SDS011;24889;42.424;25.604;2022-11-09T12:03:37;22.15;;;13.32;;
39156;SDS011;24889;42.424;25.604;2022-11-09T12:08:55;29.00;;;13.27;;
39156;SDS011;24889;42.424;25.604;2022-11-09T12:24:28;22.25;;;13.98;;
39156;SDS011;24889;42.424;25.604;2022-11-09T12:27:08;25.38;;;14.82;;
39156;SDS011;24889;42.424;25.604;2022-11-09T12:29:51;24.35;;;13.80;;
39156;SDS011;24889;42.424;25.604;2022-11-09T12:34:59;26.40;;;13.40;;
39156;SDS011;24889;42.424;25.604;2022-11-09T12:37:29;24.60;;;13.88;;
39156;SDS011;24889;42.424;25.604;2022-11-09T12:39:59;24.98;;;14.80;;
39156;SDS011;24889;42.424;25.604;2022-11-09T12:42:45;20.60;;;12.90;;
39156;SDS011;24889;42.424;25.604;2022-11-09T12:47:41;22.50;;;13.23;;
39156;SDS011;24889;42.424;25.604;2022-11-09T12:52:32;20.40;;;11.50;;
39156;SDS011;24889;42.424;25.604;2022-11-09T12:54:58;20.10;;;12.23;;
39156;SDS011;24889;42.424;25.604;2022-11-09T12:57:25;16.80;;;11.27;;
39156;SDS011;24889;42.424;25.604;2022-11-09T12:59:52;19.42;;;12.48;;
39156;SDS011;24889;42.424;25.604;2022-11-09T13:02:50;28.08;;;13.13;;
39156;SDS011;24889;42.424;25.604;2022-11-09T13:05:04;18.17;;;11.35;;
39156;SDS011;24889;42.424;25.604;2022-11-09T13:07:31;20.42;;;13.38;;
39156;SDS011;24889;42.424;25.604;2022-11-09T13:10:01;21.95;;;12.13;;
39156;SDS011;24889;42.424;25.604;2022-11-09T13:12:34;19.35;;;13.00;;
39156;SDS011;24889;42.424;25.604;2022-11-09T13:15:11;19.42;;;12.70;;
39156;SDS011;24889;42.424;25.604;2022-11-09T13:20:02;27.23;;;13.57;;
39156;SDS011;24889;42.424;25.604;2022-11-09T13:27:56;24.55;;;13.40;;
39156;SDS011;24889;42.424;25.604;2022-11-09T13:33:30;27.37;;;14.30;;
39156;SDS011;24889;42.424;25.604;2022-11-09T13:38:23;30.10;;;14.70;;
39156;SDS011;24889;42.424;25.604;2022-11-09T13:50:49;20.03;;;13.83;;
39156;SDS011;24889;42.424;25.604;2022-11-09T13:58:37;34.92;;;13.90;;
39156;SDS011;24889;42.424;25.604;2022-11-09T14:01:04;23.20;;;13.50;;
39156;SDS011;24889;42.424;25.604;2022-11-09T14:03:29;41.53;;;14.13;;
39156;SDS011;24889;42.424;25.604;2022-11-09T14:05:57;24.60;;;13.10;;
39156;SDS011;24889;42.424;25.604;2022-11-09T14:08:27;22.35;;;13.95;;
39156;SDS011;24889;42.424;25.604;2022-11-09T14:13:25;27.37;;;14.17;;
39156;SDS011;24889;42.424;25.604;2022-11-09T14:15:57;20.98;;;14.15;;
39156;SDS011;24889;42.424;25.604;2022-11-09T14:23:45;23.33;;;13.82;;
39156;SDS011;24889;42.424;25.604;2022-11-09T14:26:16;25.83;;;13.43;;
39156;SDS011;24889;42.424;25.604;2022-11-09T14:28:41;41.10;;;14.98;;
39156;SDS011;24889;42.424;25.604;2022-11-09T14:31:19;33.70;;;13.90;;
39156;SDS011;24889;42.424;25.604;2022-11-09T14:33:56;31.25;;;13.45;;
39156;SDS011;24889;42.424;25.604;2022-11-09T14:41:21;57.10;;;17.45;;
39156;SDS011;24889;42.424;25.604;2022-11-09T14:43:48;53.40;;;18.23;;
39156;SDS011;24889;42.424;25.604;2022-11-09T14:46:14;33.27;;;15.57;;
39156;SDS011;24889;42.424;25.604;2022-11-09T14:48:40;70.78;;;19.10;;
39156;SDS011;24889;42.424;25.604;2022-11-09T14:51:13;85.60;;;22.10;;
39156;SDS011;24889;42.424;25.604;2022-11-09T14:53:40;73.38;;;21.65;;
39156;SDS011;24889;42.424;25.604;2022-11-09T14:56:06;62.15;;;20.85;;
39156;SDS011;24889;42.424;25.604;2022-11-09T14:58:34;55.25;;;20.90;;
39156;SDS011;24889;42.424;25.604;2022-11-09T15:03:34;53.72;;;19.85;;
39156;SDS011;24889;42.424;25.604;2022-11-09T15:06:07;64.13;;;22.47;;
39156;SDS011;24889;42.424;25.604;2022-11-09T15:08:33;49.42;;;22.60;;
39156;SDS011;24889;42.424;25.604;2022-11-09T15:11:00;47.90;;;21.85;;
39156;SDS011;24889;42.424;25.604;2022-11-09T15:13:30;42.30;;;21.50;;
39156;SDS011;24889;42.424;25.604;2022-11-09T15:15:56;40.78;;;21.75;;
39156;SDS011;24889;42.424;25.604;2022-11-09T15:18:25;38.50;;;21.38;;
39156;SDS011;24889;42.424;25.604;2022-11-09T15:23:38;50.90;;;21.77;;
39156;SDS011;24889;42.424;25.604;2022-11-09T15:26:04;38.72;;;22.60;;
39156;SDS011;24889;42.424;25.604;2022-11-09T15:28:29;56.17;;;30.20;;
39156;SDS011;24889;42.424;25.604;2022-11-09T15:35:53;47.95;;;24.63;;
39156;SDS011;24889;42.424;25.604;2022-11-09T15:38:36;40.95;;;23.58;;
39156;SDS011;24889;42.424;25.604;2022-11-09T15:41:02;49.60;;;27.08;;
39156;SDS011;24889;42.424;25.604;2022-11-09T15:43:30;54.45;;;27.75;;
39156;SDS011;24889;42.424;25.604;2022-11-09T15:45:55;47.97;;;25.97;;
39156;SDS011;24889;42.424;25.604;2022-11-09T15:48:23;47.67;;;27.88;;
39156;SDS011;24889;42.424;25.604;2022-11-09T15:50:48;72.53;;;35.97;;
39156;SDS011;24889;42.424;25.604;2022-11-09T15:53:13;52.03;;;32.40;;
39156;SDS011;24889;42.424;25.604;2022-11-09T15:55:39;59.63;;;35.03;;
39156;SDS011;24889;42.424;25.604;2022-11-09T15:58:04;59.42;;;34.25;;
39156;SDS011;24889;42.424;25.604;2022-11-09T16:00:29;71.00;;;36.50;;
39156;SDS011;24889;42.424;25.604;2022-11-09T16:02:55;63.93;;;37.10;;
39156;SDS011;24889;42.424;25.604;2022-11-09T16:05:20;65.50;;;38.33;;
39156;SDS011;24889;42.424;25.604;2022-11-09T16:07:51;63.85;;;37.53;;
39156;SDS011;24889;42.424;25.604;2022-11-09T16:10:16;66.40;;;40.72;;
39156;SDS011;24889;42.424;25.604;2022-11-09T16:12:44;71.15;;;42.22;;
39156;SDS011;24889;42.424;25.604;2022-11-09T16:15:11;70.93;;;40.73;;
39156;SDS011;24889;42.424;25.604;2022-11-09T16:17:36;70.55;;;40.00;;
39156;SDS011;24889;42.424;25.604;2022-11-09T16:20:02;69.13;;;39.70;;
39156;SDS011;24889;42.424;25.604;2022-11-09T16:22:28;65.35;;;39.65;;
39156;SDS011;24889;42.424;25.604;2022-11-09T16:24:53;66.05;;;37.97;;
39156;SDS011;24889;42.424;25.604;2022-11-09T16:27:18;66.60;;;36.77;;
39156;SDS011;24889;42.424;25.604;2022-11-09T16:29:44;59.70;;;37.93;;